createdAt,value
2023-02-11T00:07:14.570Z,99307.32
2023-02-11T00:11:05.683Z,99307.65
2023-02-11T00:14:53.628Z,99304.41
2023-02-11T00:18:41.360Z,99301.18
2023-02-11T00:22:29.510Z,99293.35
2023-02-11T00:26:20.150Z,99291.44
2023-02-11T00:30:08.218Z,99283.08
2023-02-11T00:33:58.552Z,99270.46
2023-02-11T00:37:47.545Z,99266.89
2023-02-11T00:41:34.602Z,99267.40
2023-02-11T00:45:24.029Z,99261.11
2023-02-11T00:49:11.657Z,99256.34
2023-02-11T00:52:59.576Z,99246.48
2023-02-11T00:56:09.168Z,99234.23
2023-02-11T00:59:36.874Z,99238.30
2023-02-11T01:03:24.323Z,99227.41
2023-02-11T01:10:57.430Z,99209.02
2023-02-11T01:14:45.326Z,99192.35
2023-02-11T01:18:36.834Z,99163.59
2023-02-11T01:22:24.187Z,99151.48
2023-02-11T01:26:01.604Z,99155.40
2023-02-11T01:29:50.340Z,99157.10
2023-02-11T01:33:36.053Z,99168.83
2023-02-11T01:36:52.390Z,99174.96
2023-02-11T01:40:42.919Z,99188.22
2023-02-11T01:44:32.464Z,99192.65
2023-02-11T01:48:20.623Z,99187.05
2023-02-11T01:59:50.689Z,99180.23
2023-02-11T02:05:57.376Z,99165.77
2023-02-11T02:08:51.767Z,99164.41
2023-02-11T02:11:26.768Z,99155.05
2023-02-11T02:13:54.071Z,99146.89
2023-02-11T02:16:24.227Z,99149.95
2023-02-11T02:19:28.685Z,99139.06
2023-02-11T02:22:24.622Z,99131.75
2023-02-11T02:25:14.105Z,99123.59
2023-02-11T02:28:20.718Z,99112.02
2023-02-11T02:31:46.666Z,99110.31
2023-02-11T02:35:41.924Z,99100.80
2023-02-11T02:39:41.961Z,99104.70
2023-02-11T02:43:31.236Z,99096.20
2023-02-11T02:47:22.165Z,99073.23
2023-02-11T02:51:12.610Z,99060.48
2023-02-11T02:55:07.177Z,99051.48
2023-02-11T02:58:53.007Z,99048.41
2023-02-11T03:06:53.641Z,99020.34
2023-02-11T03:10:43.925Z,99024.92
2023-02-11T03:14:32.202Z,99031.39
2023-02-11T03:18:19.997Z,99030.02
2023-02-11T03:22:08.071Z,99022.73
2023-02-11T03:25:55.929Z,99011.48
2023-02-11T03:29:57.000Z,99010.10
2023-02-11T03:33:53.590Z,99014.70
2023-02-11T03:37:51.687Z,99008.73
2023-02-11T03:41:41.667Z,98998.69
2023-02-11T03:45:33.247Z,98995.95
2023-02-11T03:49:24.216Z,98995.94
2023-02-11T03:53:14.629Z,98981.11
2023-02-11T03:57:02.239Z,98974.45
2023-02-11T04:00:54.586Z,98958.44
2023-02-11T04:04:43.403Z,98946.19
2023-02-11T04:08:30.966Z,98934.10
2023-02-11T04:12:20.234Z,98919.77
2023-02-11T04:16:10.125Z,98897.60
2023-02-11T04:19:58.001Z,98896.23
2023-02-11T04:23:46.054Z,98916.13
2023-02-11T04:27:34.393Z,98909.30
2023-02-11T04:31:22.641Z,98918.14
2023-02-11T04:35:11.317Z,98920.85
2023-02-11T04:39:00.017Z,98918.29
2023-02-11T04:42:47.821Z,98924.58
2023-02-11T04:46:36.485Z,98924.08
2023-02-11T04:50:28.146Z,98912.98
2023-02-11T04:54:16.335Z,98905.67
2023-02-11T04:58:04.298Z,98909.92
2023-02-11T05:01:53.242Z,98908.67
2023-02-11T05:05:41.395Z,98907.14
2023-02-11T05:09:30.962Z,98913.40
2023-02-11T05:13:00.978Z,98912.38
2023-02-11T05:16:49.141Z,98916.81
2023-02-11T05:20:36.960Z,98917.67
2023-02-11T05:24:25.118Z,98910.37
2023-02-11T05:28:15.614Z,98917.83
2023-02-11T05:32:05.844Z,98920.52
2023-02-11T05:39:39.041Z,98925.15
2023-02-11T05:43:26.674Z,98910.82
2023-02-11T05:47:14.855Z,98869.13
2023-02-11T05:51:03.067Z,98843.38
2023-02-11T05:54:50.977Z,98812.70
2023-02-11T05:58:39.925Z,98809.27
2023-02-11T06:02:28.148Z,98797.04
2023-02-11T06:06:16.913Z,98794.85
2023-02-11T06:10:05.705Z,98796.70
2023-02-11T06:13:57.592Z,98791.77
2023-02-11T06:17:44.108Z,98799.27
2023-02-11T06:21:43.273Z,98817.52
2023-02-11T06:25:23.453Z,98825.85
2023-02-11T06:29:14.243Z,98827.15
2023-02-11T06:33:02.865Z,98824.73
2023-02-11T06:36:53.661Z,98838.02
2023-02-11T06:40:48.084Z,98832.77
2023-02-11T06:44:35.883Z,98829.51
2023-02-11T06:48:26.963Z,98839.51
2023-02-11T06:52:14.825Z,98840.63
2023-02-11T06:56:02.655Z,98847.41
2023-02-11T06:59:50.537Z,98844.64
2023-02-11T07:03:42.255Z,98851.79
2023-02-11T07:07:33.888Z,98847.48
2023-02-11T07:11:19.256Z,98838.34
2023-02-11T07:15:15.870Z,98832.65
2023-02-11T07:22:48.553Z,98828.41
2023-02-11T07:26:36.681Z,98820.91
2023-02-11T07:30:26.536Z,98820.21
2023-02-11T07:34:14.797Z,98819.51
2023-02-11T07:38:05.043Z,98826.91
2023-02-11T07:41:55.913Z,98825.45
2023-02-11T07:45:45.999Z,98813.44
2023-02-11T07:49:35.604Z,98803.08
2023-02-11T07:53:28.819Z,98793.41
2023-02-11T07:57:16.033Z,98777.59
2023-02-11T08:01:05.190Z,98775.60
2023-02-11T08:04:54.456Z,98781.71
2023-02-11T08:08:43.823Z,98786.73
2023-02-11T08:12:41.300Z,98790.58
2023-02-11T08:16:25.574Z,98780.53
2023-02-11T08:20:19.351Z,98784.03
2023-02-11T08:24:02.721Z,98774.89
2023-02-11T08:27:50.625Z,98774.96
2023-02-11T08:31:39.892Z,98774.16
2023-02-11T08:35:28.719Z,98775.88
2023-02-11T08:39:20.781Z,98776.80
2023-02-11T08:43:10.359Z,98763.48
2023-02-11T08:46:58.029Z,98756.06
2023-02-11T08:50:45.851Z,98767.13
2023-02-11T08:54:36.300Z,98769.30
2023-02-11T08:58:24.331Z,98757.90
2023-02-11T09:02:21.237Z,98760.77
2023-02-11T09:06:09.393Z,98773.16
2023-02-11T09:13:22.366Z,98780.84
2023-02-11T09:17:02.562Z,98785.31
2023-02-11T09:20:29.412Z,98788.90
2023-02-11T09:23:57.847Z,98788.13
2023-02-11T09:27:06.301Z,98793.55
2023-02-11T09:30:54.263Z,98796.96
2023-02-11T09:33:48.318Z,98789.27
2023-02-11T09:36:19.914Z,98800.04
2023-02-11T09:38:47.807Z,98801.20
2023-02-11T09:41:33.261Z,98796.24
2023-02-11T09:44:13.805Z,98792.85
2023-02-11T09:47:41.466Z,98782.67
2023-02-11T09:51:14.868Z,98787.27
2023-02-11T09:55:03.048Z,98775.63
2023-02-11T09:58:47.109Z,98772.41
2023-02-11T10:02:34.479Z,98764.36
2023-02-11T10:05:44.765Z,98764.55
2023-02-11T10:08:56.770Z,98757.75
2023-02-11T10:12:23.711Z,98758.54
2023-02-11T10:15:12.080Z,98753.40
2023-02-11T10:18:35.589Z,98741.87
2023-02-11T10:22:16.412Z,98733.83
2023-02-11T10:24:54.202Z,98721.48
2023-02-11T10:27:52.458Z,98710.14
2023-02-11T10:30:27.567Z,98700.29
2023-02-11T10:33:46.044Z,98685.86
2023-02-11T10:37:18.560Z,98663.77
2023-02-11T10:40:30.090Z,98645.41
2023-02-11T10:43:48.194Z,98624.42
2023-02-11T10:47:35.511Z,98610.94
2023-02-11T10:51:22.187Z,98594.70
2023-02-11T10:54:55.130Z,98590.48
2023-02-11T10:58:10.950Z,98594.27
2023-02-11T11:01:47.197Z,98591.23
2023-02-11T11:05:04.347Z,98607.81
2023-02-11T11:07:57.572Z,98618.55
2023-02-11T11:11:19.470Z,98622.55
2023-02-11T11:14:40.766Z,98631.44
2023-02-11T11:17:32.480Z,98629.27
2023-02-11T11:20:52.369Z,98631.10
2023-02-11T11:23:55.925Z,98624.45
2023-02-11T11:27:37.689Z,98628.46
2023-02-11T11:30:45.585Z,98633.52
2023-02-11T11:34:12.545Z,98629.25
2023-02-11T11:36:57.570Z,98630.15
2023-02-11T11:40:21.486Z,98619.67
2023-02-11T11:43:28.404Z,98615.71
2023-02-11T11:46:23.756Z,98624.58
2023-02-11T11:49:35.523Z,98618.19
2023-02-11T11:52:37.384Z,98618.38
2023-02-11T11:55:34.237Z,98615.59
2023-02-11T11:58:46.678Z,98619.86
2023-02-11T12:03:02.983Z,98621.40
2023-02-11T12:05:14.577Z,98621.91
2023-02-11T12:08:33.623Z,98616.30
2023-02-11T12:11:33.107Z,98613.39
2023-02-11T12:14:35.851Z,98609.35
2023-02-11T12:17:44.817Z,98610.36
2023-02-11T12:20:41.060Z,98615.90
2023-02-11T12:23:44.631Z,98610.89
2023-02-11T12:27:05.761Z,98602.33
2023-02-11T12:30:15.636Z,98602.98
2023-02-11T12:33:51.832Z,98587.20
2023-02-11T12:37:41.996Z,98568.70
2023-02-11T12:41:03.232Z,98566.73
2023-02-11T12:44:16.860Z,98582.14
2023-02-11T12:47:36.117Z,98576.65
2023-02-11T12:51:05.141Z,98556.70
2023-02-11T12:53:57.138Z,98552.98
2023-02-11T12:57:13.772Z,98575.94
2023-02-11T13:00:03.585Z,98581.59
2023-02-11T13:03:51.186Z,98577.42
2023-02-11T13:07:36.065Z,98548.98
2023-02-11T14:07:43.416Z,98555.64
2023-02-11T14:10:41.675Z,98562.29
2023-02-11T14:13:35.235Z,98579.57
2023-02-11T14:16:35.321Z,98555.80
2023-02-11T14:19:09.679Z,98585.92
2023-02-11T14:21:42.909Z,98584.00
2023-02-11T14:24:31.507Z,98573.98
2023-02-11T14:27:06.414Z,98567.00
2023-02-11T14:29:40.220Z,98566.45
2023-02-11T14:32:29.040Z,98579.77
2023-02-11T14:35:09.483Z,98579.16
2023-02-11T14:37:51.077Z,98574.09
2023-02-11T14:40:21.460Z,98572.17
2023-02-11T14:42:48.875Z,98573.56
2023-02-11T14:45:21.399Z,98567.60
2023-02-11T14:48:04.018Z,98569.01
2023-02-11T14:50:50.345Z,98567.23
2023-02-11T14:53:21.960Z,98568.36
2023-02-11T14:55:52.772Z,98567.09
2023-02-11T14:58:21.587Z,98566.68
2023-02-11T15:01:06.834Z,98565.34
2023-02-11T15:03:36.016Z,98564.83
2023-02-11T15:06:26.532Z,98566.34
2023-02-11T15:09:15.403Z,98570.95
2023-02-11T15:11:46.283Z,98567.23
2023-02-11T15:14:27.536Z,98565.35
2023-02-11T15:17:00.118Z,98576.80
2023-02-11T15:19:34.664Z,98583.11
2023-02-11T15:22:07.977Z,98577.24
2023-02-11T15:24:36.074Z,98580.00
2023-02-11T15:27:19.235Z,98584.36
2023-02-11T15:29:49.950Z,98584.34
2023-02-11T15:32:23.193Z,98583.83
2023-02-11T15:34:53.518Z,98583.85
2023-02-11T15:37:30.710Z,98584.52
2023-02-11T15:40:29.364Z,98582.29
2023-02-11T15:43:09.896Z,98599.87
2023-02-11T15:45:40.883Z,98602.86
2023-02-11T15:48:11.200Z,98599.08
2023-02-11T15:50:41.137Z,98594.75
2023-02-11T15:53:25.738Z,98604.66
2023-02-11T15:55:58.905Z,98598.77
2023-02-11T15:58:26.735Z,98598.63
2023-02-11T16:01:00.204Z,98606.27
2023-02-11T16:03:33.193Z,98598.96
2023-02-11T16:06:19.843Z,98606.95
2023-02-11T16:09:24.989Z,98605.92
2023-02-11T16:11:54.338Z,98609.95
2023-02-11T16:14:28.166Z,98613.64
2023-02-11T16:17:34.264Z,98607.66
2023-02-11T16:20:02.437Z,98612.56
2023-02-11T16:22:35.935Z,98613.48
2023-02-11T16:25:03.386Z,98610.92
2023-02-11T16:27:41.751Z,98608.21
2023-02-11T16:30:32.837Z,98605.17
2023-02-11T16:33:00.229Z,98610.09
2023-02-11T16:35:27.682Z,98618.58
2023-02-11T16:37:59.778Z,98619.39
2023-02-11T16:40:27.452Z,98616.45
2023-02-11T16:42:56.505Z,98617.94
2023-02-11T16:45:23.612Z,98618.39
2023-02-11T16:47:50.952Z,98619.45
2023-02-11T16:50:25.945Z,98621.36
2023-02-11T16:52:54.220Z,98621.91
2023-02-11T16:55:22.258Z,98628.21
2023-02-11T16:57:50.028Z,98627.81
2023-02-11T17:00:18.634Z,98628.46
2023-02-11T17:02:48.832Z,98631.52
2023-02-11T17:05:20.690Z,98633.61
2023-02-11T17:07:47.844Z,98629.88
2023-02-11T17:10:17.661Z,98630.38
2023-02-11T17:12:45.701Z,98633.58
2023-02-11T17:15:12.598Z,98637.14
2023-02-11T17:17:39.689Z,98644.16
2023-02-11T17:20:11.287Z,98645.03
2023-02-11T17:22:38.646Z,98638.69
2023-02-11T17:25:07.074Z,98641.72
2023-02-11T17:27:35.107Z,98638.39
2023-02-11T17:30:02.120Z,98644.52
2023-02-11T17:32:29.210Z,98648.63
2023-02-11T17:34:56.767Z,98642.80
2023-02-11T17:37:24.661Z,98645.36
2023-02-11T17:39:51.887Z,98645.87
2023-02-11T17:42:22.335Z,98646.55
2023-02-11T17:44:49.541Z,98647.92
2023-02-11T17:47:16.654Z,98648.11
2023-02-11T17:49:44.892Z,98648.60
2023-02-11T17:52:12.146Z,98642.45
2023-02-11T17:54:39.434Z,98636.92
2023-02-11T17:57:07.106Z,98637.24
2023-02-11T17:59:37.026Z,98644.50
2023-02-11T18:02:05.236Z,98647.11
2023-02-11T18:04:32.901Z,98649.82
2023-02-11T18:07:00.086Z,98652.52
2023-02-11T18:09:27.334Z,98651.66
2023-02-11T18:11:55.429Z,98653.86
2023-02-11T18:14:23.988Z,98652.33
2023-02-11T18:16:52.853Z,98656.42
2023-02-11T18:19:21.765Z,98660.33
2023-02-11T18:21:50.832Z,98658.94
2023-02-11T18:24:18.759Z,98663.73
2023-02-11T18:26:49.517Z,98667.27
2023-02-11T18:29:16.551Z,98665.84
2023-02-11T18:31:43.758Z,98668.64
2023-02-11T18:34:12.494Z,98674.79
2023-02-11T18:36:39.716Z,98670.33
2023-02-11T18:39:06.966Z,98670.82
2023-02-11T18:41:34.007Z,98675.07
2023-02-11T18:44:03.508Z,98679.13
2023-02-11T18:46:31.784Z,98677.52
2023-02-11T18:49:03.244Z,98683.45
2023-02-11T18:51:32.796Z,98688.70
2023-02-11T18:54:02.999Z,98689.05
2023-02-11T18:56:31.899Z,98690.20
2023-02-11T18:59:01.602Z,98691.89
2023-02-11T19:01:34.762Z,98691.02
2023-02-11T19:04:04.709Z,98695.27
2023-02-11T19:06:35.574Z,98693.53
2023-02-11T19:09:06.430Z,98693.48
2023-02-11T19:11:54.432Z,98700.77
2023-02-11T19:14:28.253Z,98704.10
2023-02-11T19:16:58.786Z,98705.73
2023-02-11T19:19:29.082Z,98706.96
2023-02-11T19:21:57.401Z,98708.44
2023-02-11T19:24:26.245Z,98706.20
2023-02-11T19:26:57.413Z,98702.19
2023-02-11T19:29:26.132Z,98709.54
2023-02-11T19:31:53.480Z,98706.63
2023-02-11T19:34:22.301Z,98715.70
2023-02-11T19:36:51.056Z,98714.29
2023-02-11T19:39:19.274Z,98709.77
2023-02-11T19:41:46.778Z,98707.30
2023-02-11T19:44:14.720Z,98709.15
2023-02-11T19:46:42.867Z,98703.51
2023-02-11T19:49:11.942Z,98707.77
2023-02-11T19:51:39.735Z,98708.60
2023-02-11T19:54:11.377Z,98709.91
2023-02-11T19:56:39.087Z,98709.84
2023-02-11T19:59:09.287Z,98707.92
2023-02-11T20:01:37.890Z,98710.98
2023-02-11T20:04:05.759Z,98706.01
2023-02-11T20:06:35.035Z,98712.63
2023-02-11T20:09:07.175Z,98714.14
2023-02-11T20:11:35.598Z,98711.04
2023-02-11T20:14:03.677Z,98706.01
2023-02-11T20:16:46.792Z,98712.46
2023-02-11T20:19:22.097Z,98713.05
2023-02-11T20:21:53.293Z,98714.77
2023-02-11T20:24:21.173Z,98717.75
2023-02-11T20:26:49.631Z,98723.55
2023-02-11T20:29:19.152Z,98728.30
2023-02-11T20:31:47.102Z,98725.69
2023-02-11T20:34:14.174Z,98725.65
2023-02-11T20:36:41.829Z,98727.65
2023-02-11T20:39:11.234Z,98733.39
2023-02-11T20:41:41.175Z,98733.92
2023-02-11T20:44:11.938Z,98734.91
2023-02-11T20:46:42.814Z,98733.52
2023-02-11T20:49:15.595Z,98735.59
2023-02-11T20:51:43.302Z,98739.08
2023-02-11T20:54:17.150Z,98740.95
2023-02-11T20:56:47.812Z,98736.82
2023-02-11T20:59:15.474Z,98741.44
2023-02-11T21:01:45.365Z,98745.35
2023-02-11T21:04:19.565Z,98746.34
2023-02-11T21:06:50.866Z,98741.02
2023-02-11T21:09:20.162Z,98747.50
2023-02-11T21:11:54.727Z,98749.02
2023-02-11T21:14:24.282Z,98750.56
2023-02-11T21:16:52.383Z,98752.62
2023-02-11T21:19:20.434Z,98757.74
2023-02-11T21:21:48.377Z,98763.40
2023-02-11T21:24:15.524Z,98765.60
2023-02-11T21:26:43.349Z,98765.61
2023-02-11T21:29:10.727Z,98768.52
2023-02-11T21:31:38.383Z,98776.17
2023-02-11T21:34:06.490Z,98779.04
2023-02-11T21:36:34.254Z,98782.80
2023-02-11T21:39:02.252Z,98783.61
2023-02-11T21:41:29.623Z,98781.84
2023-02-11T21:43:57.085Z,98781.95
2023-02-11T21:46:24.576Z,98789.45
2023-02-11T21:48:51.968Z,98792.36
2023-02-11T21:51:22.586Z,98800.06
2023-02-11T21:53:54.139Z,98806.16
2023-02-11T21:56:22.258Z,98807.83
2023-02-11T21:58:53.757Z,98804.73
2023-02-11T22:01:24.315Z,98803.57
2023-02-11T22:03:51.352Z,98813.73
2023-02-11T22:06:22.196Z,98820.38
2023-02-11T22:08:50.459Z,98816.33
2023-02-11T22:11:18.516Z,98818.04
2023-02-11T22:13:46.355Z,98819.96
2023-02-11T22:16:19.539Z,98818.59
2023-02-11T22:18:46.806Z,98824.41
2023-02-11T22:21:19.556Z,98827.69
2023-02-11T22:23:47.348Z,98830.83
2023-02-11T22:26:20.442Z,98838.55
2023-02-11T22:28:49.214Z,98842.09
2023-02-11T22:31:22.586Z,98842.29
2023-02-11T22:33:50.457Z,98848.04
2023-02-11T22:36:19.210Z,98850.98
2023-02-11T22:38:46.476Z,98853.21
2023-02-11T22:41:14.869Z,98859.18
2023-02-11T22:43:43.791Z,98860.20
2023-02-11T22:46:14.479Z,98860.72
2023-02-11T22:48:42.279Z,98858.91
2023-02-11T22:51:24.717Z,98864.44
2023-02-11T22:53:53.942Z,98868.28
2023-02-11T22:56:21.314Z,98872.55
2023-02-11T22:58:49.000Z,98878.52
2023-02-11T23:01:16.830Z,98875.08
2023-02-11T23:03:44.682Z,98873.98
2023-02-11T23:06:13.519Z,98875.67
2023-02-11T23:08:43.318Z,98878.46
2023-02-11T23:11:13.958Z,98876.41
2023-02-11T23:13:42.593Z,98881.36
2023-02-11T23:16:13.471Z,98887.45
2023-02-11T23:18:42.418Z,98886.66
2023-02-11T23:21:14.195Z,98884.56
2023-02-11T23:23:41.621Z,98887.48
2023-02-11T23:26:13.721Z,98892.13
2023-02-11T23:28:41.921Z,98883.72
2023-02-11T23:31:23.225Z,98884.88
2023-02-11T23:33:51.548Z,98887.58
2023-02-11T23:36:20.806Z,98884.21
2023-02-11T23:38:48.707Z,98876.27
2023-02-11T23:41:16.750Z,98877.41
2023-02-11T23:43:44.460Z,98882.49
2023-02-11T23:46:11.919Z,98881.79
2023-02-11T23:48:40.816Z,98887.98
2023-02-11T23:51:10.693Z,98892.14
2023-02-11T23:53:39.279Z,98894.88
2023-02-11T23:56:11.837Z,98896.53
2023-02-11T23:58:38.766Z,98899.96
